Time;durP1;ratioP1;P1;durP2;ratioP2;P2;SDS_P1;SDS_P2;PMS_P1;PMS_P2;Temp;Humidity;BMP_temperature;BMP_pressure;BME280_temperature;BME280_humidity;BME280_pressure;Samples;Min_cycle;Max_cycle;Signal;HPM_P1;HPM_P2
2023/07/03 00:04:27;;;;;;;4.70;4.10;;;24.50;57.60;;;;;;222344;1252;22529;-53
2023/07/03 00:09:32;;;;;;;4.10;3.70;;;24.60;57.70;;;;;;222573;1259;25077;-54
2023/07/03 00:14:37;;;;;;;4.30;3.90;;;24.50;57.70;;;;;;222681;1260;25438;-55
2023/07/03 00:19:41;;;;;;;4.20;3.90;;;24.50;57.70;;;;;;222509;1261;22515;-53
2023/07/03 00:24:46;;;;;;;4.30;3.90;;;24.60;57.90;;;;;;222214;1260;24037;-55
2023/07/03 00:29:50;;;;;;;5.10;4.10;;;24.60;57.50;;;;;;222803;1254;22540;-54
2023/07/03 00:34:55;;;;;;;3.70;3.40;;;24.60;57.50;;;;;;222457;1264;24256;-54
2023/07/03 00:39:59;;;;;;;4.50;4.10;;;24.50;57.40;;;;;;222942;1260;25306;-54
2023/07/03 00:45:08;;;;;;;5.90;4.00;;;24.50;57.60;;;;;;222808;1260;24438;-54
2023/07/03 00:50:12;;;;;;;4.40;4.00;;;24.50;57.60;;;;;;222507;1264;22820;-54
2023/07/03 00:55:16;;;;;;;13.20;4.10;;;24.60;57.80;;;;;;222688;1260;24305;-55
2023/07/03 01:00:28;;;;;;;4.80;4.30;;;24.50;57.50;;;;;;227798;1260;25417;-55
2023/07/03 01:05:40;;;;;;;6.00;3.70;;;24.70;56.90;;;;;;230362;1253;22161;-53
2023/07/03 01:10:45;;;;;;;4.40;4.00;;;24.80;56.40;;;;;;227909;1260;22734;-53
2023/07/03 01:15:49;;;;;;;4.40;4.00;;;24.90;56.40;;;;;;222547;1254;25426;-56
2023/07/03 01:21:05;;;;;;;5.00;3.50;;;24.70;56.90;;;;;;222666;1253;24754;-53
2023/07/03 01:26:11;;;;;;;5.00;4.00;;;24.60;57.10;;;;;;222775;1253;25596;-56
2023/07/03 01:31:17;;;;;;;3.70;3.30;;;24.50;57.20;;;;;;222837;1246;24308;-55
2023/07/03 01:36:23;;;;;;;4.10;3.80;;;24.40;57.40;;;;;;222775;1263;22776;-53
2023/07/03 01:41:29;;;;;;;3.80;3.50;;;24.40;57.50;;;;;;222644;1249;22661;-54
2023/07/03 01:46:33;;;;;;;4.20;3.50;;;24.30;57.60;;;;;;222515;1263;22620;-53
2023/07/03 01:51:49;;;;;;;4.30;3.90;;;24.30;58.00;;;;;;222557;1261;22505;-54
2023/07/03 01:56:55;;;;;;;7.00;4.00;;;24.30;57.70;;;;;;222486;1262;22522;-55
2023/07/03 02:02:28;;;;;;;5.80;4.20;;;24.30;58.10;;;;;;222358;1260;23040;-55
2023/07/03 02:07:34;;;;;;;4.90;4.10;;;24.30;57.90;;;;;;222451;1263;24278;-56
2023/07/03 02:12:44;;;;;;;4.10;3.70;;;24.30;57.80;;;;;;222416;1260;25552;-56
2023/07/03 02:17:53;;;;;;;4.60;4.10;;;24.30;57.70;;;;;;222239;1254;254114;-55
2023/07/03 02:22:58;;;;;;;4.20;3.90;;;24.30;57.80;;;;;;222696;1260;25289;-53
2023/07/03 02:28:04;;;;;;;3.80;3.60;;;24.20;57.90;;;;;;222424;1260;25367;-53
2023/07/03 02:33:10;;;;;;;4.30;3.90;;;24.20;58.00;;;;;;222333;1263;24212;-55
2023/07/03 02:38:15;;;;;;;5.80;4.40;;;24.20;57.90;;;;;;222471;1260;22637;-55
2023/07/03 02:43:19;;;;;;;4.00;3.70;;;24.20;57.90;;;;;;222509;1254;22501;-55
2023/07/03 02:48:24;;;;;;;4.70;4.30;;;24.20;58.10;;;;;;222606;1268;24186;-55
2023/07/03 02:53:28;;;;;;;5.00;4.00;;;24.20;58.10;;;;;;222421;1264;22627;-55
2023/07/03 02:58:39;;;;;;;4.90;4.10;;;24.20;58.00;;;;;;222278;1268;24167;-55
2023/07/03 03:03:46;;;;;;;4.20;3.80;;;24.10;58.10;;;;;;225210;1263;23233;-54
2023/07/03 03:08:50;;;;;;;4.40;4.00;;;24.30;57.80;;;;;;225353;1266;22634;-55
2023/07/03 03:13:55;;;;;;;4.80;4.00;;;24.40;57.50;;;;;;222274;1265;22633;-53
2023/07/03 03:18:59;;;;;;;3.90;3.60;;;24.30;57.90;;;;;;222658;1260;22560;-55
2023/07/03 03:24:04;;;;;;;4.30;3.80;;;24.20;57.90;;;;;;222745;1260;22504;-54
2023/07/03 03:29:09;;;;;;;4.30;3.90;;;24.10;58.10;;;;;;222560;1267;22511;-54
2023/07/03 03:34:14;;;;;;;4.30;3.70;;;24.10;58.20;;;;;;222343;1260;22746;-55
2023/07/03 03:39:18;;;;;;;4.70;3.60;;;24.10;58.40;;;;;;222453;1260;23901;-56
2023/07/03 03:44:23;;;;;;;4.80;4.10;;;24.10;58.30;;;;;;222618;1261;25476;-55
2023/07/03 03:49:28;;;;;;;4.40;4.00;;;24.10;58.30;;;;;;222756;1260;22508;-55
2023/07/03 03:54:33;;;;;;;3.90;3.60;;;24.10;58.40;;;;;;222409;1264;25462;-55
2023/07/03 03:59:37;;;;;;;4.00;3.60;;;24.10;59.20;;;;;;222318;1268;24223;-56
2023/07/03 04:04:42;;;;;;;4.00;3.40;;;24.00;58.60;;;;;;222440;1260;22724;-53
2023/07/03 04:09:46;;;;;;;3.70;3.50;;;24.00;59.10;;;;;;222559;1260;25212;-54
2023/07/03 04:14:51;;;;;;;4.60;4.20;;;24.10;58.90;;;;;;222155;1257;22522;-55
2023/07/03 04:19:55;;;;;;;3.90;3.60;;;24.10;58.90;;;;;;222491;1260;22515;-54
2023/07/03 04:24:59;;;;;;;4.30;4.00;;;24.10;58.90;;;;;;222760;1263;25217;-56
2023/07/03 04:30:06;;;;;;;4.30;4.00;;;24.10;58.80;;;;;;222487;1262;22507;-56
2023/07/03 04:35:10;;;;;;;8.40;3.80;;;24.10;59.30;;;;;;222499;1266;23070;-53
2023/07/03 04:40:15;;;;;;;4.20;3.80;;;24.10;59.10;;;;;;222751;1260;24339;-54
2023/07/03 04:45:21;;;;;;;5.70;4.10;;;24.10;59.30;;;;;;222822;1260;22510;-52
2023/07/03 04:50:25;;;;;;;5.30;3.90;;;24.10;58.90;;;;;;222731;1260;22509;-56
2023/07/03 04:55:31;;;;;;;4.60;4.10;;;24.10;59.70;;;;;;222728;1264;25245;-57
2023/07/03 05:00:35;;;;;;;7.00;4.30;;;24.20;59.40;;;;;;222680;1254;24189;-54
2023/07/03 05:05:39;;;;;;;4.70;4.30;;;24.20;59.50;;;;;;222491;1268;24180;-56
2023/07/03 05:10:44;;;;;;;4.30;4.00;;;24.20;59.60;;;;;;222449;1260;22503;-56
2023/07/03 05:15:48;;;;;;;3.90;3.70;;;24.20;60.00;;;;;;222510;1261;22508;-55
2023/07/03 05:20:53;;;;;;;4.60;4.10;;;24.10;59.90;;;;;;222427;1260;25309;-54
2023/07/03 05:25:57;;;;;;;5.60;4.40;;;24.20;60.00;;;;;;222502;1247;25394;-53
2023/07/03 05:31:02;;;;;;;4.30;4.00;;;24.20;59.80;;;;;;222294;1258;22524;-52
2023/07/03 05:36:07;;;;;;;5.80;4.00;;;24.30;59.90;;;;;;222476;1264;25422;-57
2023/07/03 05:41:11;;;;;;;4.70;4.30;;;24.20;60.20;;;;;;222351;1266;22576;-53
2023/07/03 05:46:15;;;;;;;5.20;4.10;;;24.30;60.10;;;;;;222438;1263;22515;-55
2023/07/03 05:51:22;;;;;;;4.80;4.40;;;24.30;60.40;;;;;;222506;1264;24565;-54
2023/07/03 05:56:28;;;;;;;5.40;4.90;;;24.20;60.20;;;;;;222476;1260;23021;-55
2023/07/03 06:01:32;;;;;;;6.00;4.80;;;24.20;60.90;;;;;;222730;1260;26609;-55
2023/07/03 06:06:36;;;;;;;5.00;4.60;;;24.20;60.30;;;;;;222431;1266;25297;-55
2023/07/03 06:11:40;;;;;;;4.80;4.30;;;24.20;60.70;;;;;;222645;1263;25382;-54
2023/07/03 06:16:47;;;;;;;14.30;5.60;;;24.50;60.10;;;;;;222466;1258;22546;-54
2023/07/03 06:21:58;;;;;;;11.50;5.70;;;24.40;61.10;;;;;;222466;1257;22507;-55
2023/07/03 06:27:03;;;;;;;8.80;5.80;;;24.50;62.10;;;;;;222441;1263;22519;-55
2023/07/03 06:32:09;;;;;;;15.10;5.60;;;24.30;62.90;;;;;;222609;1256;24247;-54
2023/07/03 06:37:14;;;;;;;9.80;5.80;;;24.40;62.10;;;;;;222419;1263;24085;-53
2023/07/03 06:42:18;;;;;;;9.80;5.90;;;24.50;61.90;;;;;;222307;1268;24361;-56
2023/07/03 06:48:25;;;;;;;12.10;5.60;;;24.50;62.70;;;;;;222210;1260;22768;-54
2023/07/03 06:53:31;;;;;;;16.20;6.20;;;24.60;61.80;;;;;;221915;1256;24192;-54
2023/07/03 06:58:35;;;;;;;18.50;6.50;;;24.70;62.60;;;;;;222347;1257;22510;-54
2023/07/03 07:03:40;;;;;;;15.90;6.20;;;24.70;62.30;;;;;;221995;1263;24206;-53
2023/07/03 07:08:46;;;;;;;14.60;6.20;;;24.70;61.80;;;;;;221409;1264;22518;-53
2023/07/03 07:13:51;;;;;;;10.90;6.40;;;24.60;61.60;;;;;;229958;1268;22169;-52
2023/07/03 07:19:00;;;;;;;12.00;7.50;;;24.70;60.70;;;;;;223929;1266;24162;-53
2023/07/03 07:24:28;;;;;;;12.00;7.10;;;24.70;60.60;;;;;;222087;1263;24227;-51
2023/07/03 07:29:34;;;;;;;11.10;7.20;;;24.80;60.30;;;;;;221875;1262;24216;-53
2023/07/03 07:34:38;;;;;;;7.50;6.80;;;24.70;59.80;;;;;;222169;1261;24209;-51
2023/07/03 07:39:43;;;;;;;9.10;7.00;;;24.70;59.60;;;;;;221936;1261;22974;-50
2023/07/03 07:44:50;;;;;;;11.90;7.10;;;24.70;59.20;;;;;;221562;1263;22692;-55
2023/07/03 07:49:54;;;;;;;10.30;6.70;;;24.70;58.80;;;;;;221906;1262;22567;-48
2023/07/03 07:54:58;;;;;;;10.70;7.70;;;24.70;58.50;;;;;;222079;1269;24351;-52
2023/07/03 08:00:04;;;;;;;12.70;7.50;;;24.80;58.10;;;;;;221900;1253;25448;-52
2023/07/03 08:05:14;;;;;;;8.00;7.10;;;24.70;58.00;;;;;;222263;1263;24161;-51
2023/07/03 08:10:19;;;;;;;11.00;7.50;;;24.70;58.10;;;;;;222177;1268;22639;-53
2023/07/03 08:15:23;;;;;;;9.20;7.40;;;24.80;58.30;;;;;;222197;1266;25340;-54
2023/07/03 08:20:27;;;;;;;9.00;7.20;;;24.90;57.80;;;;;;221957;1264;24236;-52
2023/07/03 08:25:31;;;;;;;9.10;7.20;;;24.80;57.90;;;;;;222196;1265;25265;-53
2023/07/03 08:30:36;;;;;;;9.70;7.30;;;24.80;58.30;;;;;;221950;1257;22508;-54
2023/07/03 08:35:41;;;;;;;9.40;8.10;;;24.90;58.20;;;;;;222146;1268;27838;-51
2023/07/03 08:40:55;;;;;;;8.20;7.40;;;24.90;58.00;;;;;;222398;1263;22507;-53
2023/07/03 08:46:02;;;;;;;10.10;7.20;;;24.90;58.60;;;;;;222556;1266;25402;-51
2023/07/03 08:51:09;;;;;;;8.50;7.20;;;24.90;58.70;;;;;;222114;1264;23628;-52
2023/07/03 08:56:17;;;;;;;8.60;7.60;;;24.90;58.90;;;;;;222231;1254;23984;-49
2023/07/03 09:01:50;;;;;;;9.50;8.30;;;24.90;58.50;;;;;;221978;1267;24183;-53
2023/07/03 09:07:02;;;;;;;10.70;8.20;;;24.80;58.70;;;;;;222117;1263;23891;-51
2023/07/03 09:12:26;;;;;;;9.00;8.10;;;24.90;57.70;;;;;;222182;1266;22531;-52
2023/07/03 09:17:31;;;;;;;9.50;7.40;;;24.90;57.90;;;;;;221987;1266;22511;-52
2023/07/03 09:22:54;;;;;;;9.70;7.70;;;24.90;58.20;;;;;;222225;1267;24361;-51
2023/07/03 09:28:00;;;;;;;11.40;7.70;;;24.90;57.70;;;;;;222010;1268;22647;-52
2023/07/03 09:33:09;;;;;;;10.50;8.60;;;24.90;57.30;;;;;;221856;1266;22510;-54
2023/07/03 09:38:21;;;;;;;11.20;8.90;;;24.90;57.80;;;;;;222534;1268;22719;-51
2023/07/03 09:43:29;;;;;;;12.90;9.00;;;24.90;57.10;;;;;;222108;1268;23876;-51
2023/07/03 09:48:35;;;;;;;11.30;8.00;;;24.90;56.30;;;;;;222417;1265;22546;-53
2023/07/03 09:53:39;;;;;;;10.50;8.80;;;24.90;55.90;;;;;;222197;1264;22551;-51
2023/07/03 09:58:48;;;;;;;8.90;8.00;;;24.90;56.50;;;;;;222279;1268;24035;-55
2023/07/03 10:04:08;;;;;;;10.80;8.70;;;24.90;56.30;;;;;;222333;1267;25309;-53
2023/07/03 10:09:25;;;;;;;10.50;9.40;;;24.90;55.10;;;;;;222408;1268;23450;-51
2023/07/03 10:14:47;;;;;;;11.50;9.00;;;25.00;55.50;;;;;;222328;1264;25340;-53
2023/07/03 10:19:57;;;;;;;11.70;8.80;;;25.00;54.50;;;;;;222660;1263;23957;-53
2023/07/03 10:25:06;;;;;;;10.30;8.90;;;25.10;55.00;;;;;;222566;1260;22633;-52
2023/07/03 10:30:15;;;;;;;10.00;8.90;;;25.00;55.20;;;;;;222558;1265;22520;-52
2023/07/03 10:35:25;;;;;;;16.30;9.30;;;24.90;55.60;;;;;;222341;1263;22680;-51
2023/07/03 10:40:38;;;;;;;11.40;9.00;;;25.00;54.30;;;;;;222317;1255;25185;-52
2023/07/03 10:45:42;;;;;;;14.00;9.70;;;25.00;54.10;;;;;;222750;1263;23786;-54
2023/07/03 10:50:57;;;;;;;10.60;9.50;;;25.10;53.10;;;;;;222337;1260;24167;-54
2023/07/03 10:56:12;;;;;;;10.50;9.00;;;25.10;53.90;;;;;;222287;1268;24613;-55
2023/07/03 11:01:41;;;;;;;17.10;9.70;;;25.10;53.80;;;;;;222255;1263;25325;-53
2023/07/03 11:07:04;;;;;;;11.90;9.60;;;25.20;54.00;;;;;;222464;1268;24271;-54
2023/07/03 11:12:28;;;;;;;12.40;10.20;;;25.20;53.60;;;;;;222496;1261;24348;-53
2023/07/03 11:17:50;;;;;;;11.90;9.70;;;25.30;53.30;;;;;;222390;1263;22508;-52
2023/07/03 11:23:22;;;;;;;11.50;8.80;;;25.20;53.50;;;;;;222424;1267;24483;-53
2023/07/03 11:28:34;;;;;;;13.30;9.90;;;25.10;53.70;;;;;;222516;1268;25480;-52
2023/07/03 11:33:39;;;;;;;17.40;10.00;;;25.10;53.10;;;;;;222560;1263;24198;-56
2023/07/03 11:39:13;;;;;;;11.70;9.70;;;25.10;52.60;;;;;;222334;1264;22620;-53
2023/07/03 11:44:30;;;;;;;12.10;9.80;;;25.10;52.80;;;;;;222430;1268;24277;-53
2023/07/03 11:49:38;;;;;;;11.70;10.00;;;25.20;52.20;;;;;;222390;1263;22510;-52
2023/07/03 11:54:43;;;;;;;12.20;10.00;;;25.30;52.40;;;;;;222285;1250;25090;-50
2023/07/03 11:59:47;;;;;;;13.70;10.40;;;25.30;52.20;;;;;;222585;1254;22524;-52
2023/07/03 12:04:51;;;;;;;13.20;10.30;;;25.30;52.60;;;;;;222343;1254;22585;-51
2023/07/03 12:10:18;;;;;;;11.50;9.40;;;25.20;52.40;;;;;;222440;1254;26567;-51
2023/07/03 12:15:23;;;;;;;15.30;10.30;;;25.30;52.10;;;;;;222486;1254;22531;-53
2023/07/03 12:20:27;;;;;;;14.20;10.70;;;25.30;52.70;;;;;;222216;1268;22523;-55
2023/07/03 12:25:31;;;;;;;16.70;9.80;;;25.30;52.30;;;;;;222719;1263;22686;-52
2023/07/03 12:30:36;;;;;;;12.30;10.20;;;25.30;52.20;;;;;;222375;1254;22518;-51
2023/07/03 12:35:43;;;;;;;12.60;10.20;;;25.40;52.20;;;;;;222377;1263;22511;-49
2023/07/03 12:40:47;;;;;;;12.10;9.00;;;25.40;52.10;;;;;;222380;1266;22930;-53
2023/07/03 12:45:53;;;;;;;13.10;9.40;;;25.40;51.50;;;;;;222347;1255;22774;-53
2023/07/03 12:50:58;;;;;;;12.70;9.90;;;25.40;51.80;;;;;;222371;1268;24183;-50
2023/07/03 12:56:07;;;;;;;11.70;9.70;;;25.40;51.80;;;;;;222476;1254;22514;-55
2023/07/03 13:01:11;;;;;;;12.60;9.50;;;25.40;51.60;;;;;;222473;1267;22518;-54
2023/07/03 13:06:18;;;;;;;14.60;9.10;;;25.30;51.20;;;;;;222497;1255;25167;-52
2023/07/03 13:11:43;;;;;;;12.70;9.20;;;25.30;51.00;;;;;;222502;1260;24182;-51
2023/07/03 13:16:51;;;;;;;10.40;7.50;;;25.40;50.20;;;;;;222341;1269;25265;-49
2023/07/03 13:21:55;;;;;;;12.10;7.40;;;25.50;47.30;;;;;;222488;1267;24365;-53
2023/07/03 13:27:00;;;;;;;12.90;8.70;;;25.50;47.30;;;;;;222549;1264;26502;-53
2023/07/03 13:32:20;;;;;;;13.20;7.80;;;25.40;46.70;;;;;;222420;1263;22524;-54
2023/07/03 13:37:27;;;;;;;11.10;7.60;;;25.40;47.40;;;;;;222170;1266;25383;-53
2023/07/03 13:42:31;;;;;;;8.10;6.80;;;25.40;48.20;;;;;;222771;1266;22527;-53
2023/07/03 13:47:35;;;;;;;11.10;7.60;;;25.50;49.50;;;;;;222355;1266;22517;-53
2023/07/03 13:52:40;;;;;;;12.40;7.50;;;25.50;49.30;;;;;;222359;1263;25380;-53
2023/07/03 13:57:44;;;;;;;10.00;7.70;;;25.60;49.10;;;;;;222645;1267;22518;-52
2023/07/03 14:02:48;;;;;;;10.80;6.90;;;25.40;49.20;;;;;;222144;1269;22511;-50
2023/07/03 14:07:53;;;;;;;11.10;7.70;;;25.40;49.80;;;;;;221851;1255;22559;-52
2023/07/03 14:12:57;;;;;;;8.70;7.50;;;25.50;49.50;;;;;;221838;1269;206460;-52
2023/07/03 14:18:01;;;;;;;9.30;7.40;;;25.50;49.80;;;;;;222154;1262;25642;-53
2023/07/03 14:23:07;;;;;;;9.50;7.30;;;25.60;49.50;;;;;;222155;1268;24180;-52
2023/07/03 14:28:12;;;;;;;9.00;7.10;;;25.60;50.00;;;;;;222163;1269;22533;-56
2023/07/03 14:33:16;;;;;;;7.40;6.60;;;25.60;49.90;;;;;;222226;1264;24228;-51
2023/07/03 14:38:21;;;;;;;9.80;7.00;;;25.60;49.70;;;;;;222107;1261;24215;-51
2023/07/03 14:43:25;;;;;;;13.00;7.10;;;25.70;49.80;;;;;;221990;1268;22543;-53
2023/07/03 14:48:29;;;;;;;11.10;7.80;;;25.60;49.90;;;;;;222086;1269;22645;-52
2023/07/03 14:53:33;;;;;;;13.90;7.50;;;25.60;49.20;;;;;;222136;1269;23921;-51
2023/07/03 14:58:39;;;;;;;11.90;7.60;;;25.60;49.10;;;;;;221364;1271;24218;-47
2023/07/03 15:03:43;;;;;;;13.40;7.70;;;25.70;49.00;;;;;;220988;1262;22528;-45
2023/07/03 15:08:47;;;;;;;9.10;7.30;;;25.70;48.70;;;;;;221041;1266;24266;-48
2023/07/03 15:13:52;;;;;;;9.80;7.20;;;25.80;48.80;;;;;;221191;1271;24585;-47
2023/07/03 15:19:00;;;;;;;11.60;7.70;;;25.80;49.10;;;;;;221310;1270;22529;-48
2023/07/03 15:24:07;;;;;;;13.70;8.40;;;25.60;48.10;;;;;;220942;1272;22934;-47
2023/07/03 15:29:10;;;;;;;24.90;8.80;;;25.60;47.20;;;;;;221694;1264;25446;-49
2023/07/03 15:34:14;;;;;;;14.60;8.00;;;25.60;46.30;;;;;;221932;1255;26066;-47
2023/07/03 15:39:23;;;;;;;11.00;7.60;;;25.70;45.90;;;;;;222066;1263;23480;-46
2023/07/03 15:44:27;;;;;;;10.40;7.30;;;25.80;46.30;;;;;;221992;1257;22884;-48
2023/07/03 15:49:32;;;;;;;14.30;8.30;;;25.70;46.70;;;;;;222080;1254;22524;-48
2023/07/03 15:54:40;;;;;;;17.60;8.20;;;25.70;46.90;;;;;;221815;1258;24183;-43
2023/07/03 15:59:45;;;;;;;17.00;8.20;;;25.60;45.50;;;;;;222106;1268;22516;-46
2023/07/03 16:04:49;;;;;;;10.20;7.80;;;25.50;45.80;;;;;;222450;1254;24195;-46
2023/07/03 16:09:54;;;;;;;14.40;8.30;;;25.50;45.80;;;;;;222358;1254;25436;-48
2023/07/03 16:14:58;;;;;;;16.10;8.30;;;25.70;46.20;;;;;;222587;1251;23888;-48
2023/07/03 16:20:05;;;;;;;12.20;8.20;;;25.70;45.80;;;;;;222117;1264;23007;-45
2023/07/03 16:25:16;;;;;;;14.80;8.30;;;25.80;45.50;;;;;;222283;1264;22693;-46
2023/07/03 16:30:20;;;;;;;14.40;8.20;;;25.70;45.70;;;;;;222614;1261;22511;-47
2023/07/03 16:35:25;;;;;;;13.80;8.30;;;25.70;45.70;;;;;;222300;1254;25291;-45
2023/07/03 16:40:28;;;;;;;14.50;9.10;;;25.70;46.60;;;;;;222634;1257;22653;-46
2023/07/03 16:45:33;;;;;;;15.50;8.50;;;25.50;47.10;;;;;;222667;1260;22643;-46
2023/07/03 16:50:45;;;;;;;22.20;9.50;;;25.50;47.60;;;;;;220995;1267;22525;-45
2023/07/03 16:55:50;;;;;;;14.20;8.30;;;25.50;47.30;;;;;;220814;1271;22535;-46
2023/07/03 17:00:56;;;;;;;10.20;7.60;;;25.50;47.40;;;;;;220931;1267;25920;-50
2023/07/03 17:06:03;;;;;;;14.30;9.00;;;25.60;46.50;;;;;;221351;1260;26392;-45
2023/07/03 17:11:07;;;;;;;19.00;10.40;;;25.70;47.10;;;;;;221986;1260;22526;-47
2023/07/03 17:16:16;;;;;;;19.00;13.00;;;25.70;48.30;;;;;;222276;1261;25482;-46
2023/07/03 17:21:21;;;;;;;19.70;11.20;;;25.70;48.50;;;;;;222811;1254;22601;-45
2023/07/03 17:26:27;;;;;;;17.10;9.80;;;25.70;49.40;;;;;;222464;1254;24183;-45
2023/07/03 17:31:32;;;;;;;15.10;8.60;;;25.70;49.10;;;;;;222609;1253;22517;-46
2023/07/03 17:36:37;;;;;;;14.10;8.60;;;25.50;47.60;;;;;;222375;1264;23718;-48
2023/07/03 17:41:45;;;;;;;13.80;8.00;;;25.40;46.20;;;;;;222392;1260;22585;-47
2023/07/03 17:46:49;;;;;;;13.00;8.00;;;25.40;46.50;;;;;;222428;1256;22519;-45
2023/07/03 17:51:54;;;;;;;13.30;8.00;;;25.50;46.10;;;;;;222563;1261;22515;-46
2023/07/03 17:56:59;;;;;;;20.20;7.70;;;25.70;46.00;;;;;;222299;1253;25339;-44
2023/07/03 18:02:08;;;;;;;16.60;7.70;;;25.80;46.20;;;;;;222126;1254;25914;-47
2023/07/03 18:07:14;;;;;;;17.90;8.60;;;25.60;46.80;;;;;;222096;1261;22507;-49
2023/07/03 18:12:20;;;;;;;14.60;7.50;;;25.60;47.60;;;;;;222149;1256;24190;-46
2023/07/03 18:17:24;;;;;;;16.90;8.00;;;25.60;47.40;;;;;;222400;1257;22975;-47
2023/07/03 18:22:32;;;;;;;13.70;7.90;;;25.50;47.60;;;;;;222202;1268;25316;-45
2023/07/03 18:27:37;;;;;;;15.40;7.30;;;25.40;48.00;;;;;;222152;1264;22508;-45
2023/07/03 18:32:42;;;;;;;13.90;7.30;;;25.30;48.70;;;;;;222230;1253;22544;-46
2023/07/03 18:37:47;;;;;;;11.60;6.70;;;25.30;49.30;;;;;;222374;1260;25321;-39
2023/07/03 18:42:51;;;;;;;16.70;7.60;;;25.20;49.20;;;;;;222698;1267;22516;-43
2023/07/03 18:47:56;;;;;;;16.40;7.80;;;25.30;49.70;;;;;;222379;1264;22561;-42
2023/07/03 18:53:01;;;;;;;14.90;7.90;;;25.30;50.00;;;;;;222452;1261;22638;-42
2023/07/03 18:58:06;;;;;;;15.50;7.90;;;25.20;50.00;;;;;;222511;1254;22458;-41
2023/07/03 19:03:11;;;;;;;12.90;8.00;;;25.20;50.70;;;;;;222499;1260;24487;-40
2023/07/03 19:08:18;;;;;;;14.00;8.10;;;25.10;49.90;;;;;;222431;1263;25120;-40
2023/07/03 19:13:23;;;;;;;12.60;8.20;;;25.10;50.40;;;;;;222228;1256;25171;-44
2023/07/03 19:18:27;;;;;;;15.30;8.70;;;25.10;50.60;;;;;;222474;1254;22515;-42
2023/07/03 19:23:31;;;;;;;19.60;9.00;;;25.10;50.40;;;;;;222311;1260;22510;-40
2023/07/03 19:28:36;;;;;;;21.40;8.90;;;25.00;50.20;;;;;;222255;1261;24218;-40
2023/07/03 19:33:42;;;;;;;13.40;8.90;;;24.80;50.70;;;;;;222262;1256;24225;-39
2023/07/03 19:38:48;;;;;;;18.00;8.40;;;24.90;50.80;;;;;;222389;1253;22533;-40
2023/07/03 19:43:53;;;;;;;32.60;9.20;;;24.90;51.10;;;;;;222688;1254;25586;-40
2023/07/03 19:49:00;;;;;;;23.50;9.00;;;24.90;51.10;;;;;;222513;1254;22599;-41
2023/07/03 19:54:08;;;;;;;20.20;8.60;;;25.00;51.00;;;;;;222370;1256;22510;-47
2023/07/03 19:59:15;;;;;;;23.10;8.50;;;25.00;51.00;;;;;;222133;1264;25522;-54
2023/07/03 20:04:20;;;;;;;15.90;8.20;;;24.90;50.60;;;;;;222930;1263;24180;-52
2023/07/03 20:09:25;;;;;;;13.20;7.80;;;24.90;49.90;;;;;;222529;1254;25415;-52
2023/07/03 20:14:30;;;;;;;11.70;7.70;;;24.80;50.00;;;;;;222895;1260;23084;-51
2023/07/03 20:19:36;;;;;;;16.50;8.40;;;24.80;50.50;;;;;;222626;1260;22532;-51
2023/07/03 20:24:40;;;;;;;14.30;7.90;;;24.70;51.60;;;;;;222333;1260;22623;-50
2023/07/03 20:29:49;;;;;;;15.60;7.70;;;24.80;52.40;;;;;;222696;1265;22680;-51
2023/07/03 20:34:55;;;;;;;13.80;8.20;;;24.70;52.80;;;;;;222288;1254;22758;-52
2023/07/03 20:40:00;;;;;;;14.10;7.50;;;24.60;53.10;;;;;;222134;1252;24220;-51
2023/07/03 20:45:07;;;;;;;12.60;7.30;;;24.60;53.00;;;;;;222237;1264;22627;-52
2023/07/03 20:50:13;;;;;;;14.10;7.10;;;24.60;53.10;;;;;;222436;1257;22630;-47
2023/07/03 20:55:34;;;;;;;14.50;7.00;;;24.50;52.30;;;;;;222570;1256;26621;-50
2023/07/03 21:00:39;;;;;;;9.20;6.70;;;24.50;52.50;;;;;;226530;1248;24176;-52
2023/07/03 21:05:45;;;;;;;12.60;6.60;;;24.40;52.00;;;;;;222477;1263;22517;-52
2023/07/03 21:10:59;;;;;;;15.60;7.20;;;24.30;53.00;;;;;;222222;1260;23774;-52
2023/07/03 21:16:03;;;;;;;17.40;6.40;;;24.50;52.80;;;;;;222182;1260;22524;-53
2023/07/03 21:21:19;;;;;;;8.70;5.90;;;24.90;53.80;;;;;;222290;1268;22797;-53
2023/07/03 21:26:24;;;;;;;14.00;6.60;;;25.10;54.50;;;;;;222333;1256;24170;-52
2023/07/03 21:31:31;;;;;;;12.50;6.90;;;25.20;53.80;;;;;;222598;1260;22513;-53
2023/07/03 21:36:36;;;;;;;11.40;6.30;;;25.20;54.70;;;;;;222523;1260;22511;-52
2023/07/03 21:41:41;;;;;;;14.70;7.30;;;25.30;54.60;;;;;;222551;1260;25398;-50
2023/07/03 21:46:46;;;;;;;10.20;6.20;;;25.30;54.80;;;;;;222396;1253;22614;-49
2023/07/03 21:51:52;;;;;;;8.50;6.00;;;25.30;55.50;;;;;;222468;1247;22643;-53
2023/07/03 21:56:57;;;;;;;8.90;6.40;;;25.20;54.60;;;;;;222618;1260;25488;-52
2023/07/03 22:02:14;;;;;;;7.70;6.20;;;25.20;55.00;;;;;;222659;1254;22609;-54
2023/07/03 22:07:20;;;;;;;9.80;5.90;;;25.20;55.00;;;;;;222199;1253;22524;-54
2023/07/03 22:12:25;;;;;;;9.40;6.00;;;25.30;55.80;;;;;;222352;1249;22522;-52
2023/07/03 22:17:29;;;;;;;8.50;6.20;;;25.30;54.80;;;;;;222468;1260;23078;-54
2023/07/03 22:22:33;;;;;;;8.40;5.90;;;25.30;55.10;;;;;;222184;1258;22561;-52
2023/07/03 22:27:38;;;;;;;7.10;5.50;;;25.30;55.10;;;;;;222988;1260;22604;-55
2023/07/03 22:32:42;;;;;;;7.90;5.60;;;25.30;56.10;;;;;;222428;1260;25575;-50
2023/07/03 22:37:46;;;;;;;10.10;5.90;;;25.10;55.80;;;;;;222616;1257;24380;-55
2023/07/03 22:42:51;;;;;;;7.80;6.30;;;25.20;55.50;;;;;;222523;1260;22634;-51
2023/07/03 22:47:55;;;;;;;7.70;5.10;;;25.20;55.50;;;;;;222409;1256;22515;-54
2023/07/03 22:52:59;;;;;;;6.20;5.20;;;25.20;55.60;;;;;;222565;1254;22532;-54
2023/07/03 22:58:03;;;;;;;7.40;5.10;;;25.20;55.50;;;;;;222288;1253;22632;-52
2023/07/03 23:03:08;;;;;;;5.50;4.80;;;25.20;55.30;;;;;;222394;1260;22501;-55
2023/07/03 23:08:15;;;;;;;5.50;4.70;;;25.20;55.50;;;;;;222243;1263;22612;-52
2023/07/03 23:13:20;;;;;;;5.20;4.70;;;25.20;55.90;;;;;;222380;1253;22664;-52
2023/07/03 23:18:27;;;;;;;8.30;4.60;;;25.20;55.50;;;;;;222357;1260;22662;-53
2023/07/03 23:23:32;;;;;;;6.10;5.00;;;25.30;55.70;;;;;;222223;1260;24144;-55
2023/07/03 23:28:37;;;;;;;5.40;4.60;;;25.30;55.60;;;;;;222561;1257;24247;-52
2023/07/03 23:33:47;;;;;;;6.00;5.20;;;25.30;55.60;;;;;;222271;1261;22496;-53
2023/07/03 23:38:52;;;;;;;6.90;5.60;;;25.20;55.60;;;;;;222381;1266;22628;-50
2023/07/03 23:43:59;;;;;;;5.70;5.00;;;25.20;56.00;;;;;;222425;1264;22515;-53
2023/07/03 23:49:04;;;;;;;5.60;4.90;;;25.30;55.80;;;;;;222188;1256;24193;-51
2023/07/03 23:54:09;;;;;;;8.30;4.90;;;25.30;55.80;;;;;;222125;1260;22520;-53
2023/07/03 23:59:13;;;;;;;7.10;4.60;;;25.20;57.00;;;;;;222386;1253;25781;-48
